首页
METAR-TAF:

METAR-TAF

机场 :

內排國際機場

河內, 越南

纬度: 21-01N, 经度: 105-48E, 海拔: 6米

当前天气观测

该预报发布于21分钟前的21:30 UTC
风速7节,风向东转东北
温度 27°C
湿度 66%
气压 1008 hPa
能见度10公里或以上
散云层高于3300英尺

METAR: VVNB 202130Z 07007KT 9999 SCT033 27/20 Q1008 NOSIG

时间: 04:51 (21:51 UTC)

预报

该预报发布于4小时和51分钟前的17:00 UTC
预报有效从20日的 18点(UTC)到 21日的 18点(UTC)
风速8节,风向东北
能見度: 8000
散云层高于1700英尺
多云层高于5000英尺
几率 40% :
短暂存在
从 20日的 18点(UTC)到 20日的 24点(UTC)
能見度: 4000
散云层高于1300英尺
少量云层高于2700英尺, 积雨云.
阴天层高于4000英尺
雷暴, 雨

TAF: VVNB 201700Z 2018/2118 05008KT 8000 SCT017 BKN050 PROB40 TEMPO 2018/2024 4000 TSRA SCT013 FEW027CB OVC040

超过4000个机场的气象观测和天气预报(METAR&TAF报告)。

可查询的气象台以黄色和红色小点在地图上表示。

将鼠标移到小点上方,可查看气象台名称。

然后点击查看天气观测和预报。

如需切换地图:点击带黑十字的绿色按钮放大地图;点击带横线的绿色按钮缩小地图;或者点击绿色箭头查看邻近地区的地图。


METAR-TAF: